»·PEaware :: N1399 K11S-KBFI

N1399 :: K11S-KBFI

FLIGHT INFORMATION

Flight Status: Arrived
Operator: Privately registered:
United States
More flights under this callsign
Pilot: David C. (16084)
Aircraft: Unknown
(EPIC)
More flights by this aircraft type
Origin: K11S
Destination: KBFI Boeing Field/King Co Intl
United States
More flights between these airports :: More routes between these airports
Route: TOU V4 JAWBN JAWBN5
File this flight plan on PilotEdge
Remarks:
Altitude:
(Current/Filed)
19,000ft
Speed:
(Current/Filed)
339kts
Departed: 11-Jan-18 09:51 AM
Arrived: 11-Jan-18 10:22 AM
Distance/Time
Traveled:
Not Available
Distance/Time
To Go:
Arrived

Flight Plot

Page will automatically refresh every two minutes.

Flight plan parsing failed; only flown route is shown


Map Options




Map Legend


Flown Route
Filed Route
Departure Airport
Arrival Airport
Navaid (VOR, NDB)
Fix

Horizontal Profiles

Position Reports

Time Latitude Longitude Heading Altitude Ground
Speed
11-Jan-18 09:41 48.265692 -124.309388 187 354ft 0kts
11-Jan-18 09:42 48.265692 -124.309388 187 354ft 0kts
11-Jan-18 09:43 48.265692 -124.309388 187 354ft 0kts
11-Jan-18 09:44 48.265692 -124.309388 187 354ft 0kts
11-Jan-18 09:45 48.265692 -124.309388 187 354ft 0kts
11-Jan-18 09:46 48.265692 -124.309388 187 354ft 0kts
11-Jan-18 09:47 48.265692 -124.309388 187 354ft 0kts
11-Jan-18 09:48 48.265692 -124.309388 186 354ft 0kts
11-Jan-18 09:49 48.265692 -124.309388 186 354ft 0kts
11-Jan-18 09:50 48.266069 -124.313834 280 354ft 19kts
11-Jan-18 09:51 48.266787 -124.319637 94 354ft 9kts
11-Jan-18 09:52 48.266779 -124.319520 97 354ft 0kts
11-Jan-18 09:53 48.266779 -124.319520 97 354ft 0kts
11-Jan-18 09:54 48.266779 -124.319520 97 354ft 0kts
11-Jan-18 09:55 48.266779 -124.319520 97 354ft 0kts
11-Jan-18 09:56 48.266779 -124.319520 97 354ft 0kts
11-Jan-18 09:57 48.264664 -124.291539 74 949ft 149kts
11-Jan-18 09:58 48.286706 -124.330432 288 3090ft 197kts
11-Jan-18 09:59 48.282387 -124.412037 269 5024ft 213kts
11-Jan-18 10:00 48.287297 -124.496659 273 7005ft 195kts
11-Jan-18 10:01 48.318027 -124.547651 20 10456ft 209kts
11-Jan-18 10:02 48.328191 -124.474152 115 13077ft 202kts
11-Jan-18 10:03 48.313056 -124.391402 114 15581ft 218kts
11-Jan-18 10:04 48.297388 -124.302461 115 18300ft 229kts
11-Jan-18 10:05 48.278364 -124.195003 113 18783ft 304kts
11-Jan-18 10:06 48.255757 -124.066572 112 18808ft 332kts
11-Jan-18 10:07 48.231964 -123.932498 112 18824ft 339kts
11-Jan-18 10:08 48.207662 -123.796706 112 18851ft 341kts
11-Jan-18 10:09 48.182939 -123.659610 112 18852ft 342kts
11-Jan-18 10:10 48.158091 -123.522879 112 18850ft 343kts
11-Jan-18 10:11 48.133122 -123.386476 112 18846ft 343kts
11-Jan-18 10:12 48.108936 -123.255334 112 18838ft 342kts
11-Jan-18 10:13 48.083975 -123.120959 112 18839ft 341kts
11-Jan-18 10:14 48.058675 -122.985934 111 18274ft 355kts
11-Jan-18 10:15 48.025445 -122.853923 139 15979ft 331kts
11-Jan-18 10:16 47.966981 -122.787026 150 13981ft 317kts
11-Jan-18 10:17 47.880609 -122.719237 175 11310ft 291kts
11-Jan-18 10:18 47.818926 -122.709986 175 9337ft 258kts
11-Jan-18 10:19 47.751161 -122.702910 165 6955ft 242kts
11-Jan-18 10:20 47.736471 -122.604088 85 4175ft 232kts
11-Jan-18 10:21 47.740732 -122.528666 87 3069ft 201kts
11-Jan-18 10:22 47.711849 -122.459383 126 3082ft 202kts
11-Jan-18 10:23 47.668459 -122.419887 149 2878ft 165kts
11-Jan-18 10:24 47.632548 -122.389423 148 2114ft 142kts
11-Jan-18 10:25 47.599666 -122.361434 147 1380ft 143kts
11-Jan-18 10:26 47.571344 -122.337475 147 742ft 110kts
11-Jan-18 10:27 47.545593 -122.315648 147 170ft 107kts
11-Jan-18 10:28 47.530525 -122.302950 159 24ft 19kts
11-Jan-18 10:29 47.529719 -122.303448 216 24ft 6kts
11-Jan-18 10:30 47.525662 -122.301346 152 24ft 19kts
11-Jan-18 10:31 47.524232 -122.301031 127 24ft 0kts

Navigation Log

Ident Type
Flight plan parsing failed, navigation log unavailable